sensor_id;sensor_type;location;lat;lon;timestamp;temperature;humidity
19781;DHT22;10050;55.492;13.506;2022-09-09T00:09:48;13.60;99.90
19781;DHT22;10050;55.492;13.506;2022-09-09T00:16:03;13.60;99.90
19781;DHT22;10050;55.492;13.506;2022-09-09T00:21:37;13.60;99.90
19781;DHT22;10050;55.492;13.506;2022-09-09T00:24:24;13.60;99.90
19781;DHT22;10050;55.492;13.506;2022-09-09T00:26:56;13.60;99.90
19781;DHT22;10050;55.492;13.506;2022-09-09T00:29:33;13.60;99.90
19781;DHT22;10050;55.492;13.506;2022-09-09T00:32:12;13.50;99.90
19781;DHT22;10050;55.492;13.506;2022-09-09T00:34:57;13.50;99.90
19781;DHT22;10050;55.492;13.506;2022-09-09T00:37:26;13.50;99.90
19781;DHT22;10050;55.492;13.506;2022-09-09T00:39:55;13.50;99.90
19781;DHT22;10050;55.492;13.506;2022-09-09T00:42:29;13.40;99.90
19781;DHT22;10050;55.492;13.506;2022-09-09T00:45:02;13.50;99.90
19781;DHT22;10050;55.492;13.506;2022-09-09T00:47:44;13.40;99.90
19781;DHT22;10050;55.492;13.506;2022-09-09T00:56:22;13.40;99.90
19781;DHT22;10050;55.492;13.506;2022-09-09T00:59:03;13.40;99.90
19781;DHT22;10050;55.492;13.506;2022-09-09T01:01:33;13.40;99.90
19781;DHT22;10050;55.492;13.506;2022-09-09T01:04:01;13.40;99.90
19781;DHT22;10050;55.492;13.506;2022-09-09T01:06:35;13.40;99.90
19781;DHT22;10050;55.492;13.506;2022-09-09T01:09:18;13.50;99.90
19781;DHT22;10050;55.492;13.506;2022-09-09T01:17:31;13.50;99.90
19781;DHT22;10050;55.492;13.506;2022-09-09T01:22:48;13.50;99.90
19781;DHT22;10050;55.492;13.506;2022-09-09T01:28:16;13.50;99.90
19781;DHT22;10050;55.492;13.506;2022-09-09T01:30:44;13.50;99.90
19781;DHT22;10050;55.492;13.506;2022-09-09T01:33:14;13.50;99.90
19781;DHT22;10050;55.492;13.506;2022-09-09T01:38:12;13.60;99.90
19781;DHT22;10050;55.492;13.506;2022-09-09T01:40:38;13.60;99.90
19781;DHT22;10050;55.492;13.506;2022-09-09T01:43:04;13.60;99.90
19781;DHT22;10050;55.492;13.506;2022-09-09T01:45:30;13.60;99.90
19781;DHT22;10050;55.492;13.506;2022-09-09T01:47:56;13.60;99.90
19781;DHT22;10050;55.492;13.506;2022-09-09T01:50:22;13.60;99.90
19781;DHT22;10050;55.492;13.506;2022-09-09T01:52:57;13.50;99.90
19781;DHT22;10050;55.492;13.506;2022-09-09T01:55:32;13.50;99.90
19781;DHT22;10050;55.492;13.506;2022-09-09T01:58:17;13.50;99.90
19781;DHT22;10050;55.492;13.506;2022-09-09T02:03:35;13.40;99.90
19781;DHT22;10050;55.492;13.506;2022-09-09T02:08:50;13.40;99.90
19781;DHT22;10050;55.492;13.506;2022-09-09T02:11:24;13.30;99.90
19781;DHT22;10050;55.492;13.506;2022-09-09T02:13:57;13.30;99.90
19781;DHT22;10050;55.492;13.506;2022-09-09T02:16:32;13.30;99.90
19781;DHT22;10050;55.492;13.506;2022-09-09T02:21:34;13.30;99.90
19781;DHT22;10050;55.492;13.506;2022-09-09T02:24:04;13.30;99.90
19781;DHT22;10050;55.492;13.506;2022-09-09T02:26:32;13.30;99.90
19781;DHT22;10050;55.492;13.506;2022-09-09T02:29:02;13.30;99.90
19781;DHT22;10050;55.492;13.506;2022-09-09T02:31:28;13.30;99.90
19781;DHT22;10050;55.492;13.506;2022-09-09T02:34:00;13.40;99.90
19781;DHT22;10050;55.492;13.506;2022-09-09T02:36:30;13.40;99.90
19781;DHT22;10050;55.492;13.506;2022-09-09T02:38:59;13.40;99.90
19781;DHT22;10050;55.492;13.506;2022-09-09T02:41:40;13.40;99.90
19781;DHT22;10050;55.492;13.506;2022-09-09T02:44:17;13.40;99.90
19781;DHT22;10050;55.492;13.506;2022-09-09T02:47:03;13.40;99.90
19781;DHT22;10050;55.492;13.506;2022-09-09T02:52:15;13.50;99.90
19781;DHT22;10050;55.492;13.506;2022-09-09T02:54:42;13.50;99.90
19781;DHT22;10050;55.492;13.506;2022-09-09T02:57:25;13.50;99.90
19781;DHT22;10050;55.492;13.506;2022-09-09T02:59:53;13.50;99.90
19781;DHT22;10050;55.492;13.506;2022-09-09T03:02:19;13.50;99.90
19781;DHT22;10050;55.492;13.506;2022-09-09T03:04:44;13.60;99.90
19781;DHT22;10050;55.492;13.506;2022-09-09T03:07:16;13.60;99.90
19781;DHT22;10050;55.492;13.506;2022-09-09T03:09:42;13.60;99.90
19781;DHT22;10050;55.492;13.506;2022-09-09T03:12:08;13.70;99.90
19781;DHT22;10050;55.492;13.506;2022-09-09T03:14:36;13.70;99.90
19781;DHT22;10050;55.492;13.506;2022-09-09T03:17:04;13.70;99.90
19781;DHT22;10050;55.492;13.506;2022-09-09T03:19:29;13.70;99.90
19781;DHT22;10050;55.492;13.506;2022-09-09T03:21:55;13.80;99.90
19781;DHT22;10050;55.492;13.506;2022-09-09T03:24:21;13.80;99.90
19781;DHT22;10050;55.492;13.506;2022-09-09T03:26:48;13.70;99.90
19781;DHT22;10050;55.492;13.506;2022-09-09T03:29:13;13.70;99.90
19781;DHT22;10050;55.492;13.506;2022-09-09T03:31:40;13.70;99.90
19781;DHT22;10050;55.492;13.506;2022-09-09T03:34:06;13.70;99.90
19781;DHT22;10050;55.492;13.506;2022-09-09T03:36:32;13.60;99.90
19781;DHT22;10050;55.492;13.506;2022-09-09T03:38:58;13.60;99.90
19781;DHT22;10050;55.492;13.506;2022-09-09T03:41:25;13.60;99.90
19781;DHT22;10050;55.492;13.506;2022-09-09T03:43:52;13.40;99.90
19781;DHT22;10050;55.492;13.506;2022-09-09T03:46:23;13.40;99.90
19781;DHT22;10050;55.492;13.506;2022-09-09T03:48:49;13.30;99.90
19781;DHT22;10050;55.492;13.506;2022-09-09T03:51:15;13.30;99.90
19781;DHT22;10050;55.492;13.506;2022-09-09T03:53:41;13.30;99.90
19781;DHT22;10050;55.492;13.506;2022-09-09T03:56:07;13.30;99.90
19781;DHT22;10050;55.492;13.506;2022-09-09T03:58:34;13.30;99.90
19781;DHT22;10050;55.492;13.506;2022-09-09T04:01:03;13.30;99.90
19781;DHT22;10050;55.492;13.506;2022-09-09T04:03:29;13.30;99.90
19781;DHT22;10050;55.492;13.506;2022-09-09T04:05:57;13.30;99.90
19781;DHT22;10050;55.492;13.506;2022-09-09T04:08:23;13.30;99.90
19781;DHT22;10050;55.492;13.506;2022-09-09T04:10:52;13.30;99.90
19781;DHT22;10050;55.492;13.506;2022-09-09T04:13:19;13.40;99.90
19781;DHT22;10050;55.492;13.506;2022-09-09T04:15:51;13.40;99.90
19781;DHT22;10050;55.492;13.506;2022-09-09T04:18:17;13.40;99.90
19781;DHT22;10050;55.492;13.506;2022-09-09T04:20:42;13.50;99.90
19781;DHT22;10050;55.492;13.506;2022-09-09T04:23:08;13.50;99.90
19781;DHT22;10050;55.492;13.506;2022-09-09T04:25:34;13.50;99.90
19781;DHT22;10050;55.492;13.506;2022-09-09T04:28:00;13.50;99.90
19781;DHT22;10050;55.492;13.506;2022-09-09T04:30:26;13.50;99.90
19781;DHT22;10050;55.492;13.506;2022-09-09T04:32:53;13.50;99.90
19781;DHT22;10050;55.492;13.506;2022-09-09T04:35:18;13.50;99.90
19781;DHT22;10050;55.492;13.506;2022-09-09T04:37:45;13.50;99.90
19781;DHT22;10050;55.492;13.506;2022-09-09T04:40:11;13.60;99.90
19781;DHT22;10050;55.492;13.506;2022-09-09T04:42:37;13.60;99.90
19781;DHT22;10050;55.492;13.506;2022-09-09T04:45:04;13.60;99.90
19781;DHT22;10050;55.492;13.506;2022-09-09T04:47:30;13.60;99.90
19781;DHT22;10050;55.492;13.506;2022-09-09T04:49:56;13.60;99.90
19781;DHT22;10050;55.492;13.506;2022-09-09T04:52:22;13.60;99.90
19781;DHT22;10050;55.492;13.506;2022-09-09T04:54:47;13.60;99.90
19781;DHT22;10050;55.492;13.506;2022-09-09T04:57:13;13.60;99.90
19781;DHT22;10050;55.492;13.506;2022-09-09T04:59:39;13.60;99.90
19781;DHT22;10050;55.492;13.506;2022-09-09T05:02:05;13.60;99.90
19781;DHT22;10050;55.492;13.506;2022-09-09T05:04:31;13.60;99.90
19781;DHT22;10050;55.492;13.506;2022-09-09T05:06:57;13.60;99.90
19781;DHT22;10050;55.492;13.506;2022-09-09T05:09:22;13.60;99.90
19781;DHT22;10050;55.492;13.506;2022-09-09T05:11:48;13.70;99.90
19781;DHT22;10050;55.492;13.506;2022-09-09T05:14:14;13.70;99.90
19781;DHT22;10050;55.492;13.506;2022-09-09T05:16:40;13.70;99.90
19781;DHT22;10050;55.492;13.506;2022-09-09T05:19:06;13.70;99.90
19781;DHT22;10050;55.492;13.506;2022-09-09T05:21:33;13.70;99.90
19781;DHT22;10050;55.492;13.506;2022-09-09T05:23:59;13.70;99.90
19781;DHT22;10050;55.492;13.506;2022-09-09T05:26:26;13.70;99.90
19781;DHT22;10050;55.492;13.506;2022-09-09T05:28:52;13.70;99.90
19781;DHT22;10050;55.492;13.506;2022-09-09T05:31:18;13.70;99.90
19781;DHT22;10050;55.492;13.506;2022-09-09T05:33:45;13.60;99.90
19781;DHT22;10050;55.492;13.506;2022-09-09T05:36:13;13.60;99.90
19781;DHT22;10050;55.492;13.506;2022-09-09T05:38:39;13.60;99.90
19781;DHT22;10050;55.492;13.506;2022-09-09T05:41:06;13.60;99.90
19781;DHT22;10050;55.492;13.506;2022-09-09T05:43:33;13.70;99.90
19781;DHT22;10050;55.492;13.506;2022-09-09T05:46:05;13.70;99.90
19781;DHT22;10050;55.492;13.506;2022-09-09T05:48:33;13.60;99.90
19781;DHT22;10050;55.492;13.506;2022-09-09T05:51:00;13.60;99.90
19781;DHT22;10050;55.492;13.506;2022-09-09T05:53:26;13.60;99.90
19781;DHT22;10050;55.492;13.506;2022-09-09T05:56:06;13.60;99.90
19781;DHT22;10050;55.492;13.506;2022-09-09T05:58:33;13.60;99.90
19781;DHT22;10050;55.492;13.506;2022-09-09T06:01:06;13.60;99.90
19781;DHT22;10050;55.492;13.506;2022-09-09T06:03:34;13.60;99.90
19781;DHT22;10050;55.492;13.506;2022-09-09T06:06:02;13.60;99.90
19781;DHT22;10050;55.492;13.506;2022-09-09T06:08:31;13.80;99.90
19781;DHT22;10050;55.492;13.506;2022-09-09T06:11:12;13.80;99.90
19781;DHT22;10050;55.492;13.506;2022-09-09T06:13:38;13.80;99.90
19781;DHT22;10050;55.492;13.506;2022-09-09T06:16:05;13.80;99.90
19781;DHT22;10050;55.492;13.506;2022-09-09T06:18:32;13.80;99.90
19781;DHT22;10050;55.492;13.506;2022-09-09T06:21:04;13.80;99.90
19781;DHT22;10050;55.492;13.506;2022-09-09T06:23:30;13.90;99.90
19781;DHT22;10050;55.492;13.506;2022-09-09T06:26:13;13.90;99.90
19781;DHT22;10050;55.492;13.506;2022-09-09T06:28:40;13.90;99.90
19781;DHT22;10050;55.492;13.506;2022-09-09T06:31:09;13.90;99.90
19781;DHT22;10050;55.492;13.506;2022-09-09T06:33:40;14.00;99.90
19781;DHT22;10050;55.492;13.506;2022-09-09T06:36:16;14.00;99.90
19781;DHT22;10050;55.492;13.506;2022-09-09T06:38:42;14.00;99.90
19781;DHT22;10050;55.492;13.506;2022-09-09T06:41:09;14.00;99.90
19781;DHT22;10050;55.492;13.506;2022-09-09T06:43:35;14.00;99.90
19781;DHT22;10050;55.492;13.506;2022-09-09T06:46:05;14.10;99.90
19781;DHT22;10050;55.492;13.506;2022-09-09T06:48:30;14.10;99.90
19781;DHT22;10050;55.492;13.506;2022-09-09T06:51:19;14.10;99.90
19781;DHT22;10050;55.492;13.506;2022-09-09T06:53:47;14.20;99.90
19781;DHT22;10050;55.492;13.506;2022-09-09T06:56:31;14.20;99.90
19781;DHT22;10050;55.492;13.506;2022-09-09T06:58:59;14.20;99.90
19781;DHT22;10050;55.492;13.506;2022-09-09T07:01:30;14.20;99.90
19781;DHT22;10050;55.492;13.506;2022-09-09T07:03:57;14.20;99.90
19781;DHT22;10050;55.492;13.506;2022-09-09T07:06:29;14.30;99.90
19781;DHT22;10050;55.492;13.506;2022-09-09T07:09:01;14.30;99.90
19781;DHT22;10050;55.492;13.506;2022-09-09T07:11:31;14.30;99.90
19781;DHT22;10050;55.492;13.506;2022-09-09T07:13:58;14.40;99.90
19781;DHT22;10050;55.492;13.506;2022-09-09T07:16:24;14.40;99.90
19781;DHT22;10050;55.492;13.506;2022-09-09T07:18:51;14.40;99.90
19781;DHT22;10050;55.492;13.506;2022-09-09T07:21:18;14.40;99.90
19781;DHT22;10050;55.492;13.506;2022-09-09T07:23:44;14.40;99.90
19781;DHT22;10050;55.492;13.506;2022-09-09T07:26:15;14.50;99.90
19781;DHT22;10050;55.492;13.506;2022-09-09T07:28:41;14.50;99.90
19781;DHT22;10050;55.492;13.506;2022-09-09T07:31:13;14.50;99.90
19781;DHT22;10050;55.492;13.506;2022-09-09T07:33:42;14.50;99.90
19781;DHT22;10050;55.492;13.506;2022-09-09T07:36:10;14.60;99.90
19781;DHT22;10050;55.492;13.506;2022-09-09T07:38:42;14.60;99.90
19781;DHT22;10050;55.492;13.506;2022-09-09T07:41:10;14.70;99.90
19781;DHT22;10050;55.492;13.506;2022-09-09T07:43:43;14.80;99.90
19781;DHT22;10050;55.492;13.506;2022-09-09T07:46:10;14.80;99.90
19781;DHT22;10050;55.492;13.506;2022-09-09T07:48:38;14.90;99.90
19781;DHT22;10050;55.492;13.506;2022-09-09T07:51:12;15.00;99.90
19781;DHT22;10050;55.492;13.506;2022-09-09T07:53:41;15.10;99.90
19781;DHT22;10050;55.492;13.506;2022-09-09T07:56:12;15.30;99.90
19781;DHT22;10050;55.492;13.506;2022-09-09T07:58:38;15.50;99.90
19781;DHT22;10050;55.492;13.506;2022-09-09T08:01:16;15.60;99.90
19781;DHT22;10050;55.492;13.506;2022-09-09T08:03:44;15.60;99.90
19781;DHT22;10050;55.492;13.506;2022-09-09T08:06:10;15.70;99.90
19781;DHT22;10050;55.492;13.506;2022-09-09T08:08:38;15.60;99.90
19781;DHT22;10050;55.492;13.506;2022-09-09T08:11:06;15.70;99.90
19781;DHT22;10050;55.492;13.506;2022-09-09T08:13:34;15.70;99.90
19781;DHT22;10050;55.492;13.506;2022-09-09T08:16:14;15.70;99.90
19781;DHT22;10050;55.492;13.506;2022-09-09T08:18:41;15.70;99.90
19781;DHT22;10050;55.492;13.506;2022-09-09T08:21:12;15.80;99.90
19781;DHT22;10050;55.492;13.506;2022-09-09T08:23:42;15.90;99.90
19781;DHT22;10050;55.492;13.506;2022-09-09T08:26:13;16.00;99.90
19781;DHT22;10050;55.492;13.506;2022-09-09T08:28:40;16.20;99.90
19781;DHT22;10050;55.492;13.506;2022-09-09T08:31:11;16.40;99.90
19781;DHT22;10050;55.492;13.506;2022-09-09T08:33:37;16.60;99.90
19781;DHT22;10050;55.492;13.506;2022-09-09T08:36:05;16.80;99.90
19781;DHT22;10050;55.492;13.506;2022-09-09T08:38:31;16.80;99.90
19781;DHT22;10050;55.492;13.506;2022-09-09T08:46:57;16.90;99.90
19781;DHT22;10050;55.492;13.506;2022-09-09T08:50:05;17.00;99.90
19781;DHT22;10050;55.492;13.506;2022-09-09T08:55:24;16.90;99.90
19781;DHT22;10050;55.492;13.506;2022-09-09T08:57:53;16.80;99.90
19781;DHT22;10050;55.492;13.506;2022-09-09T09:00:20;17.00;99.90
19781;DHT22;10050;55.492;13.506;2022-09-09T09:05:47;17.60;99.90
19781;DHT22;10050;55.492;13.506;2022-09-09T09:10:58;18.50;99.90
19781;DHT22;10050;55.492;13.506;2022-09-09T09:16:23;18.80;99.90
19781;DHT22;10050;55.492;13.506;2022-09-09T09:18:52;18.60;99.90
19781;DHT22;10050;55.492;13.506;2022-09-09T09:24:01;18.00;99.90
19781;DHT22;10050;55.492;13.506;2022-09-09T09:26:35;17.90;99.90
19781;DHT22;10050;55.492;13.506;2022-09-09T09:29:15;17.80;99.90
19781;DHT22;10050;55.492;13.506;2022-09-09T09:31:53;17.70;99.90
19781;DHT22;10050;55.492;13.506;2022-09-09T09:34:22;17.60;99.90
19781;DHT22;10050;55.492;13.506;2022-09-09T09:37:01;17.50;99.90
19781;DHT22;10050;55.492;13.506;2022-09-09T09:39:28;17.50;99.90
19781;DHT22;10050;55.492;13.506;2022-09-09T09:41:54;17.60;99.90
19781;DHT22;10050;55.492;13.506;2022-09-09T09:44:31;17.70;99.90
19781;DHT22;10050;55.492;13.506;2022-09-09T09:49:32;17.80;99.90
19781;DHT22;10050;55.492;13.506;2022-09-09T09:52:02;17.80;99.90
19781;DHT22;10050;55.492;13.506;2022-09-09T09:54:31;17.90;99.90
19781;DHT22;10050;55.492;13.506;2022-09-09T09:57:11;18.00;99.90
19781;DHT22;10050;55.492;13.506;2022-09-09T09:59:39;18.10;99.90
19781;DHT22;10050;55.492;13.506;2022-09-09T10:02:17;18.20;99.90
19781;DHT22;10050;55.492;13.506;2022-09-09T10:04:44;18.30;99.90
19781;DHT22;10050;55.492;13.506;2022-09-09T10:07:19;18.20;99.90
19781;DHT22;10050;55.492;13.506;2022-09-09T10:09:46;18.00;99.90
19781;DHT22;10050;55.492;13.506;2022-09-09T10:18:08;17.80;99.90
19781;DHT22;10050;55.492;13.506;2022-09-09T10:21:36;18.20;99.90
19781;DHT22;10050;55.492;13.506;2022-09-09T10:30:16;18.90;99.90
19781;DHT22;10050;55.492;13.506;2022-09-09T10:32:49;18.90;99.90
19781;DHT22;10050;55.492;13.506;2022-09-09T10:35:34;18.80;99.90
19781;DHT22;10050;55.492;13.506;2022-09-09T10:41:12;18.90;99.90
19781;DHT22;10050;55.492;13.506;2022-09-09T10:44:14;19.00;99.90
19781;DHT22;10050;55.492;13.506;2022-09-09T10:46:58;19.10;99.90
19781;DHT22;10050;55.492;13.506;2022-09-09T10:55:00;18.90;99.90
19781;DHT22;10050;55.492;13.506;2022-09-09T10:57:33;18.80;99.90
19781;DHT22;10050;55.492;13.506;2022-09-09T11:00:10;18.60;99.90
19781;DHT22;10050;55.492;13.506;2022-09-09T11:02:41;18.50;99.90
19781;DHT22;10050;55.492;13.506;2022-09-09T11:05:59;18.40;99.90
19781;DHT22;10050;55.492;13.506;2022-09-09T11:08:09;18.50;99.90
19781;DHT22;10050;55.492;13.506;2022-09-09T11:10:45;18.40;99.90
19781;DHT22;10050;55.492;13.506;2022-09-09T11:16:11;18.30;99.90
19781;DHT22;10050;55.492;13.506;2022-09-09T11:18:41;18.40;99.90
19781;DHT22;10050;55.492;13.506;2022-09-09T11:24:30;18.60;99.90
19781;DHT22;10050;55.492;13.506;2022-09-09T11:32:48;18.70;99.90
19781;DHT22;10050;55.492;13.506;2022-09-09T11:35:30;18.70;99.90
19781;DHT22;10050;55.492;13.506;2022-09-09T11:40:38;18.60;99.90
19781;DHT22;10050;55.492;13.506;2022-09-09T11:45:32;18.60;99.90
19781;DHT22;10050;55.492;13.506;2022-09-09T11:48:00;18.70;99.90
19781;DHT22;10050;55.492;13.506;2022-09-09T11:50:29;18.90;99.90
19781;DHT22;10050;55.492;13.506;2022-09-09T11:55:39;19.00;99.90
19781;DHT22;10050;55.492;13.506;2022-09-09T11:58:15;19.30;99.90
19781;DHT22;10050;55.492;13.506;2022-09-09T12:00:49;19.80;99.90
19781;DHT22;10050;55.492;13.506;2022-09-09T12:03:50;19.90;99.90
19781;DHT22;10050;55.492;13.506;2022-09-09T12:06:31;19.90;99.90
19781;DHT22;10050;55.492;13.506;2022-09-09T12:14:56;19.00;99.90
19781;DHT22;10050;55.492;13.506;2022-09-09T12:17:24;18.90;99.90
19781;DHT22;10050;55.492;13.506;2022-09-09T12:28:48;19.00;99.90
19781;DHT22;10050;55.492;13.506;2022-09-09T12:33:50;18.90;99.90
19781;DHT22;10050;55.492;13.506;2022-09-09T12:36:29;19.00;99.90
19781;DHT22;10050;55.492;13.506;2022-09-09T12:39:09;19.20;99.90
19781;DHT22;10050;55.492;13.506;2022-09-09T12:41:36;19.00;99.90
19781;DHT22;10050;55.492;13.506;2022-09-09T12:44:09;18.80;99.90
19781;DHT22;10050;55.492;13.506;2022-09-09T12:46:39;18.80;99.90
19781;DHT22;10050;55.492;13.506;2022-09-09T12:52:23;18.50;99.90
19781;DHT22;10050;55.492;13.506;2022-09-09T12:54:50;18.50;99.90
19781;DHT22;10050;55.492;13.506;2022-09-09T12:57:20;18.60;99.90
19781;DHT22;10050;55.492;13.506;2022-09-09T12:59:48;18.50;99.90
19781;DHT22;10050;55.492;13.506;2022-09-09T13:02:25;18.70;99.90
19781;DHT22;10050;55.492;13.506;2022-09-09T13:04:52;18.70;99.90
19781;DHT22;10050;55.492;13.506;2022-09-09T13:07:20;18.80;99.90
19781;DHT22;10050;55.492;13.506;2022-09-09T13:09:48;19.10;99.90
19781;DHT22;10050;55.492;13.506;2022-09-09T13:12:24;19.10;99.90
19781;DHT22;10050;55.492;13.506;2022-09-09T13:14:53;19.30;99.90
19781;DHT22;10050;55.492;13.506;2022-09-09T13:17:24;19.80;99.90
19781;DHT22;10050;55.492;13.506;2022-09-09T13:20:00;19.90;99.90
19781;DHT22;10050;55.492;13.506;2022-09-09T13:27:35;19.20;99.90
19781;DHT22;10050;55.492;13.506;2022-09-09T13:30:26;19.10;99.90
19781;DHT22;10050;55.492;13.506;2022-09-09T13:35:57;18.90;99.90
19781;DHT22;10050;55.492;13.506;2022-09-09T13:38:24;18.80;99.90
19781;DHT22;10050;55.492;13.506;2022-09-09T13:41:06;18.70;99.90
19781;DHT22;10050;55.492;13.506;2022-09-09T13:43:38;18.70;99.90
19781;DHT22;10050;55.492;13.506;2022-09-09T13:46:28;18.70;99.90
19781;DHT22;10050;55.492;13.506;2022-09-09T13:48:56;18.80;99.90
19781;DHT22;10050;55.492;13.506;2022-09-09T13:51:46;19.00;99.90
19781;DHT22;10050;55.492;13.506;2022-09-09T13:54:14;19.00;99.90
19781;DHT22;10050;55.492;13.506;2022-09-09T13:56:41;19.20;99.90
19781;DHT22;10050;55.492;13.506;2022-09-09T13:59:16;19.30;99.90
19781;DHT22;10050;55.492;13.506;2022-09-09T14:01:42;19.10;99.90
19781;DHT22;10050;55.492;13.506;2022-09-09T14:04:09;19.10;99.90
19781;DHT22;10050;55.492;13.506;2022-09-09T14:06:36;18.90;99.90
19781;DHT22;10050;55.492;13.506;2022-09-09T14:09:07;18.90;99.90
19781;DHT22;10050;55.492;13.506;2022-09-09T14:11:34;18.70;99.90
19781;DHT22;10050;55.492;13.506;2022-09-09T14:14:00;18.60;99.90
19781;DHT22;10050;55.492;13.506;2022-09-09T14:16:26;18.40;99.90
19781;DHT22;10050;55.492;13.506;2022-09-09T14:18:53;18.50;99.90
19781;DHT22;10050;55.492;13.506;2022-09-09T14:21:18;18.40;99.90
19781;DHT22;10050;55.492;13.506;2022-09-09T14:23:44;18.40;99.90
19781;DHT22;10050;55.492;13.506;2022-09-09T14:26:10;18.30;99.90
19781;DHT22;10050;55.492;13.506;2022-09-09T14:28:36;18.30;99.90
19781;DHT22;10050;55.492;13.506;2022-09-09T14:31:03;18.30;99.90
19781;DHT22;10050;55.492;13.506;2022-09-09T14:33:29;18.30;99.90
19781;DHT22;10050;55.492;13.506;2022-09-09T14:35:57;18.20;99.90
19781;DHT22;10050;55.492;13.506;2022-09-09T14:38:22;18.20;99.90
19781;DHT22;10050;55.492;13.506;2022-09-09T14:40:48;18.20;99.90
19781;DHT22;10050;55.492;13.506;2022-09-09T14:43:14;18.20;99.90
19781;DHT22;10050;55.492;13.506;2022-09-09T14:45:40;18.10;99.90
19781;DHT22;10050;55.492;13.506;2022-09-09T14:48:05;18.10;99.90
19781;DHT22;10050;55.492;13.506;2022-09-09T14:50:31;18.10;99.90
19781;DHT22;10050;55.492;13.506;2022-09-09T14:52:57;18.10;99.90
19781;DHT22;10050;55.492;13.506;2022-09-09T14:55:22;18.10;99.90
19781;DHT22;10050;55.492;13.506;2022-09-09T14:57:48;18.10;99.90
19781;DHT22;10050;55.492;13.506;2022-09-09T15:00:14;18.10;99.90
19781;DHT22;10050;55.492;13.506;2022-09-09T15:02:41;18.20;99.90
19781;DHT22;10050;55.492;13.506;2022-09-09T15:05:07;18.20;99.90
19781;DHT22;10050;55.492;13.506;2022-09-09T15:07:33;18.10;99.90
19781;DHT22;10050;55.492;13.506;2022-09-09T15:09:59;18.00;99.90
19781;DHT22;10050;55.492;13.506;2022-09-09T15:12:25;17.90;99.90
19781;DHT22;10050;55.492;13.506;2022-09-09T15:14:50;17.80;99.90
19781;DHT22;10050;55.492;13.506;2022-09-09T15:17:16;17.70;99.90
19781;DHT22;10050;55.492;13.506;2022-09-09T15:19:42;17.70;99.90
19781;DHT22;10050;55.492;13.506;2022-09-09T15:22:08;17.70;99.90
19781;DHT22;10050;55.492;13.506;2022-09-09T15:24:34;17.70;99.90
19781;DHT22;10050;55.492;13.506;2022-09-09T15:27:01;17.70;99.90
19781;DHT22;10050;55.492;13.506;2022-09-09T15:29:27;17.70;99.90
19781;DHT22;10050;55.492;13.506;2022-09-09T15:31:55;17.70;99.90
19781;DHT22;10050;55.492;13.506;2022-09-09T15:34:21;17.60;99.90
19781;DHT22;10050;55.492;13.506;2022-09-09T15:36:47;17.60;99.90
19781;DHT22;10050;55.492;13.506;2022-09-09T15:39:15;17.60;99.90
19781;DHT22;10050;55.492;13.506;2022-09-09T15:41:45;17.60;99.90
19781;DHT22;10050;55.492;13.506;2022-09-09T15:44:12;17.50;99.90
19781;DHT22;10050;55.492;13.506;2022-09-09T15:46:39;17.50;99.90
19781;DHT22;10050;55.492;13.506;2022-09-09T15:49:06;17.60;99.90
19781;DHT22;10050;55.492;13.506;2022-09-09T15:51:32;17.50;99.90
19781;DHT22;10050;55.492;13.506;2022-09-09T15:53:58;17.50;99.90
19781;DHT22;10050;55.492;13.506;2022-09-09T15:56:26;17.50;99.90
19781;DHT22;10050;55.492;13.506;2022-09-09T15:58:53;17.60;99.90
19781;DHT22;10050;55.492;13.506;2022-09-09T16:01:20;17.60;99.90
19781;DHT22;10050;55.492;13.506;2022-09-09T16:03:46;17.60;99.90
19781;DHT22;10050;55.492;13.506;2022-09-09T16:06:13;17.50;99.90
19781;DHT22;10050;55.492;13.506;2022-09-09T16:08:42;17.60;99.90
19781;DHT22;10050;55.492;13.506;2022-09-09T16:11:11;17.60;99.90
19781;DHT22;10050;55.492;13.506;2022-09-09T16:13:38;17.60;99.90
19781;DHT22;10050;55.492;13.506;2022-09-09T16:16:07;17.50;99.90
19781;DHT22;10050;55.492;13.506;2022-09-09T16:18:48;17.60;99.90
19781;DHT22;10050;55.492;13.506;2022-09-09T16:21:20;17.50;99.90
19781;DHT22;10050;55.492;13.506;2022-09-09T16:23:46;17.50;99.90
19781;DHT22;10050;55.492;13.506;2022-09-09T16:26:13;17.40;99.90
19781;DHT22;10050;55.492;13.506;2022-09-09T16:28:40;17.40;99.90
19781;DHT22;10050;55.492;13.506;2022-09-09T16:31:10;17.30;99.90
19781;DHT22;10050;55.492;13.506;2022-09-09T16:33:37;17.30;99.90
19781;DHT22;10050;55.492;13.506;2022-09-09T16:36:11;17.40;99.90
19781;DHT22;10050;55.492;13.506;2022-09-09T16:38:38;17.40;99.90
19781;DHT22;10050;55.492;13.506;2022-09-09T16:41:04;17.40;99.90
19781;DHT22;10050;55.492;13.506;2022-09-09T16:43:34;17.30;99.90
19781;DHT22;10050;55.492;13.506;2022-09-09T16:46:01;17.30;99.90
19781;DHT22;10050;55.492;13.506;2022-09-09T16:48:32;17.30;99.90
19781;DHT22;10050;55.492;13.506;2022-09-09T16:51:06;17.30;99.90
19781;DHT22;10050;55.492;13.506;2022-09-09T16:53:32;17.30;99.90
19781;DHT22;10050;55.492;13.506;2022-09-09T16:55:58;17.20;99.90
19781;DHT22;10050;55.492;13.506;2022-09-09T16:58:23;17.10;99.90
19781;DHT22;10050;55.492;13.506;2022-09-09T17:00:49;17.10;99.90
19781;DHT22;10050;55.492;13.506;2022-09-09T17:03:16;17.00;99.90
19781;DHT22;10050;55.492;13.506;2022-09-09T17:05:42;17.00;99.90
19781;DHT22;10050;55.492;13.506;2022-09-09T17:08:08;17.00;99.90
19781;DHT22;10050;55.492;13.506;2022-09-09T17:10:34;17.00;99.90
19781;DHT22;10050;55.492;13.506;2022-09-09T17:13:05;16.90;99.90
19781;DHT22;10050;55.492;13.506;2022-09-09T17:15:30;16.90;99.90
19781;DHT22;10050;55.492;13.506;2022-09-09T17:17:56;16.90;99.90
19781;DHT22;10050;55.492;13.506;2022-09-09T17:20:21;16.90;99.90
19781;DHT22;10050;55.492;13.506;2022-09-09T17:22:50;16.90;99.90
19781;DHT22;10050;55.492;13.506;2022-09-09T17:25:16;16.80;99.90
19781;DHT22;10050;55.492;13.506;2022-09-09T17:27:42;16.80;99.90
19781;DHT22;10050;55.492;13.506;2022-09-09T17:30:08;16.70;99.90
19781;DHT22;10050;55.492;13.506;2022-09-09T17:32:34;16.70;99.90
19781;DHT22;10050;55.492;13.506;2022-09-09T17:35:01;16.70;99.90
19781;DHT22;10050;55.492;13.506;2022-09-09T17:37:27;16.70;99.90
19781;DHT22;10050;55.492;13.506;2022-09-09T17:39:53;16.60;99.90
19781;DHT22;10050;55.492;13.506;2022-09-09T17:42:19;16.70;99.90
19781;DHT22;10050;55.492;13.506;2022-09-09T17:44:45;16.60;99.90
19781;DHT22;10050;55.492;13.506;2022-09-09T17:47:10;16.50;99.90
19781;DHT22;10050;55.492;13.506;2022-09-09T17:49:36;16.60;99.90